Flat Rock, Illinois
Current Conditions -  °F | °C
As of 7:55 AM on Monday 20 Oct 2014 (Local Time) from KRSV Reporting Station
Overcast Overcast  
Wind Chill: 53°   Ceiling: 9000
Heat Index: 53°   Visibility: 10mi
Dew Point: 49°   Wind: 5mph
Humidity: 88%   Direction: 210°SSW
Pressure: 29.97"   Gusts: NA
Location:  38.9°N, 87.67°W
Report Text: KRSV 201255Z AUTO 21004KT 10SM OVC090 12/10 A2997 RMK AO2 T01150095
Loading
Personal Weather Stations






























Interactive Weather Map
Tropical Storm Tracking
New forecast layout! Learn more

10-Day Weather Forecast

Advertisements
Track Severe Weather on mobile